createdAt,value
2018-09-18T05:29:01.589Z,360.00
2018-09-18T05:30:01.556Z,376.00
2018-09-18T05:31:54.420Z,412.00
2018-09-18T05:32:54.132Z,428.00
2018-09-18T05:34:47.756Z,460.00
2018-09-18T05:35:47.772Z,476.00
2018-09-18T05:37:40.643Z,504.00
2018-09-18T05:38:40.367Z,520.00
2018-09-18T05:40:34.067Z,544.00
2018-09-18T05:41:34.471Z,560.00
2018-09-18T05:43:26.421Z,580.00
2018-09-18T05:44:26.935Z,592.00
2018-09-18T05:46:19.277Z,616.00
2018-09-18T05:47:20.283Z,628.00
2018-09-18T05:49:13.085Z,648.00
2018-09-18T05:50:13.093Z,660.00
2018-09-18T05:52:06.905Z,680.00
2018-09-18T05:53:07.019Z,692.00
2018-09-18T05:54:59.487Z,712.00
2018-09-18T05:55:59.475Z,724.00
2018-09-18T05:57:52.375Z,740.00
2018-09-18T05:58:53.361Z,748.00
2018-09-18T06:00:46.306Z,768.00
2018-09-18T06:01:45.814Z,776.00
2018-09-18T06:03:39.393Z,792.00
2018-09-18T06:04:39.267Z,804.00
2018-09-18T06:06:32.674Z,824.00
2018-09-18T06:07:32.701Z,828.00
2018-09-18T06:09:24.840Z,852.00
2018-09-18T06:10:26.054Z,864.00
2018-09-18T06:12:18.440Z,884.00
2018-09-18T06:13:19.881Z,896.00
2018-09-18T06:14:18.510Z,904.00
2018-09-18T06:15:18.393Z,916.00
2018-09-18T06:16:18.467Z,928.00
2018-09-18T06:17:18.201Z,940.00
2018-09-18T06:18:18.027Z,952.00
2018-09-18T06:19:18.184Z,964.00
2018-09-18T06:20:18.051Z,980.00
2018-09-18T06:21:18.074Z,996.00
2018-09-18T06:22:18.071Z,1012.00
2018-09-18T06:23:18.047Z,1028.00
2018-09-18T06:24:18.051Z,1040.00
2018-09-18T06:25:18.099Z,1052.00
2018-09-18T06:26:18.107Z,1060.00
2018-09-18T06:27:18.051Z,1072.00
2018-09-18T06:28:18.079Z,1084.00
2018-09-18T06:29:18.064Z,1096.00
2018-09-18T06:30:18.071Z,1108.00
2018-09-18T06:31:18.069Z,1124.00
2018-09-18T06:32:18.072Z,1140.00
2018-09-18T06:33:18.072Z,1152.00
2018-09-18T06:34:18.114Z,1168.00
2018-09-18T06:35:18.116Z,1180.00
2018-09-18T06:36:18.079Z,1208.00
2018-09-18T06:37:18.083Z,2304.00
2018-09-18T06:38:18.084Z,4248.00
2018-09-18T06:39:18.089Z,4756.00
2018-09-18T06:40:18.120Z,4800.00
2018-09-18T06:41:18.114Z,4876.00
2018-09-18T06:42:18.129Z,4960.00
2018-09-18T06:43:18.108Z,5076.00
2018-09-18T06:44:18.149Z,5188.00
2018-09-18T06:45:18.120Z,5276.00
2018-09-18T06:46:18.116Z,5380.00
2018-09-18T06:47:18.126Z,5468.00
2018-09-18T06:48:18.126Z,5596.00
2018-09-18T06:49:18.132Z,5712.00
2018-09-18T06:50:18.137Z,5772.00
2018-09-18T06:51:18.146Z,5876.00
2018-09-18T06:52:18.149Z,5956.00
2018-09-18T06:53:18.154Z,6036.00
2018-09-18T06:54:18.169Z,6076.00
2018-09-18T06:55:18.187Z,6160.00
2018-09-18T06:56:18.171Z,6232.00
2018-09-18T06:57:18.177Z,6320.00
2018-09-18T06:58:18.184Z,6444.00
2018-09-18T06:59:18.190Z,6468.00
2018-09-18T07:00:18.198Z,6580.00
2018-09-18T07:01:18.233Z,6656.00
2018-09-18T07:02:18.239Z,6676.00
2018-09-18T07:03:18.212Z,6756.00
2018-09-18T07:04:18.222Z,6852.00
2018-09-18T07:05:18.227Z,6892.00
2018-09-18T07:06:18.235Z,6932.00
2018-09-18T07:07:18.244Z,7004.00
2018-09-18T07:08:18.255Z,7092.00
2018-09-18T07:09:18.259Z,7152.00
2018-09-18T07:10:18.268Z,7220.00
2018-09-18T07:11:18.275Z,7300.00
2018-09-18T07:12:18.281Z,7320.00
2018-09-18T07:13:18.290Z,7372.00
2018-09-18T07:14:18.296Z,7412.00
2018-09-18T07:15:18.305Z,7524.00
2018-09-18T07:16:18.345Z,7532.00
2018-09-18T07:17:18.326Z,7576.00
2018-09-18T07:18:18.333Z,7656.00
2018-09-18T07:19:18.340Z,7664.00
2018-09-18T07:20:18.348Z,7708.00
2018-09-18T07:21:18.404Z,7772.00
2018-09-18T07:22:20.057Z,7824.00
2018-09-18T07:23:18.373Z,7936.00
2018-09-18T07:24:18.382Z,8060.00
2018-09-18T07:25:18.391Z,8168.00
2018-09-18T07:26:18.396Z,8280.00
2018-09-18T07:27:18.407Z,8428.00
2018-09-18T07:28:18.413Z,8592.00
2018-09-18T07:29:18.473Z,8996.00
2018-09-18T07:30:18.436Z,9488.00
2018-09-18T07:31:18.460Z,10180.00
2018-09-18T07:32:18.491Z,11868.00
2018-09-18T07:33:18.463Z,12800.00
2018-09-18T07:34:18.472Z,12100.00
2018-09-18T07:35:18.538Z,11464.00
2018-09-18T07:36:18.492Z,11816.00
2018-09-18T07:37:18.503Z,12380.00
2018-09-18T07:38:21.054Z,12928.00
2018-09-18T07:39:18.518Z,13184.00
2018-09-18T07:40:18.527Z,13920.00
2018-09-18T07:41:18.536Z,15808.00
2018-09-18T07:42:18.552Z,17184.00
2018-09-18T07:43:18.560Z,18080.00
2018-09-18T07:44:18.573Z,19616.00
2018-09-18T07:45:18.589Z,22176.00
2018-09-18T07:46:18.591Z,23328.00
2018-09-18T07:47:18.600Z,23744.00
2018-09-18T07:48:18.617Z,24256.00
2018-09-18T07:49:18.625Z,24544.00
2018-09-18T07:50:18.635Z,23552.00
2018-09-18T07:51:18.652Z,20832.00
2018-09-18T07:52:18.753Z,20256.00
2018-09-18T07:53:18.668Z,20320.00
2018-09-18T07:54:18.675Z,19520.00
2018-09-18T07:55:18.692Z,18528.00
2018-09-18T07:56:18.736Z,18432.00
2018-09-18T07:57:18.708Z,17920.00
2018-09-18T07:58:18.716Z,17760.00
2018-09-18T07:59:18.730Z,17760.00
2018-09-18T08:00:18.776Z,17408.00
2018-09-18T08:01:18.754Z,16608.00
2018-09-18T08:02:18.762Z,16928.00
2018-09-18T08:03:18.851Z,18752.00
2018-09-18T08:04:18.787Z,19168.00
2018-09-18T08:05:18.805Z,16160.00
2018-09-18T08:06:18.811Z,15200.00
2018-09-18T08:07:18.821Z,16960.00
2018-09-18T08:08:18.838Z,18080.00
2018-09-18T08:09:18.848Z,16960.00
2018-09-18T08:10:18.889Z,16960.00
2018-09-18T08:11:18.872Z,18944.00
2018-09-18T08:12:18.885Z,17760.00
2018-09-18T08:13:18.898Z,16640.00
2018-09-18T08:14:18.908Z,17632.00
2018-09-18T08:15:18.923Z,18048.00
2018-09-18T08:16:18.939Z,19200.00
2018-09-18T08:17:18.947Z,19040.00
2018-09-18T08:18:18.957Z,17792.00
2018-09-18T08:19:19.031Z,17408.00
2018-09-18T08:20:19.038Z,18240.00
2018-09-18T08:21:19.002Z,18336.00
2018-09-18T08:22:19.015Z,17344.00
2018-09-18T08:23:19.028Z,18048.00
2018-09-18T08:24:19.043Z,19104.00
2018-09-18T08:25:19.151Z,19072.00
2018-09-18T08:26:19.068Z,19264.00
2018-09-18T08:27:19.083Z,19904.00
2018-09-18T08:28:19.099Z,19712.00
2018-09-18T08:29:19.111Z,20160.00
2018-09-18T08:30:19.130Z,22048.00
2018-09-18T08:31:19.140Z,22400.00
2018-09-18T08:32:19.152Z,24128.00
2018-09-18T08:33:19.169Z,27488.00
2018-09-18T08:34:19.181Z,28288.00
2018-09-18T08:35:19.202Z,26272.00
2018-09-18T08:36:19.211Z,25440.00
2018-09-18T08:37:19.229Z,25376.00
2018-09-18T08:38:19.241Z,26400.00
2018-09-18T08:39:19.253Z,28544.00
2018-09-18T08:40:19.298Z,31936.00
2018-09-18T08:41:19.299Z,31840.00
2018-09-18T08:42:19.323Z,29280.00
2018-09-18T08:43:19.319Z,27296.00
2018-09-18T08:44:19.330Z,24416.00
2018-09-18T08:45:19.345Z,21856.00
2018-09-18T08:46:19.368Z,20384.00
2018-09-18T08:47:19.390Z,19776.00
2018-09-18T08:48:19.437Z,19744.00
2018-09-18T08:49:19.425Z,19552.00
2018-09-18T08:50:19.445Z,19328.00
2018-09-18T08:51:19.431Z,18752.00
2018-09-18T08:52:19.476Z,18848.00
2018-09-18T08:53:19.473Z,18656.00
2018-09-18T08:54:19.501Z,18816.00
2018-09-18T08:55:19.499Z,19008.00
2018-09-18T08:56:19.515Z,19072.00
2018-09-18T08:57:19.556Z,19104.00
2018-09-18T08:58:19.548Z,19200.00
2018-09-18T08:59:19.584Z,19232.00
2018-09-18T09:00:19.582Z,18464.00
2018-09-18T09:01:19.607Z,18624.00
2018-09-18T09:02:19.620Z,18752.00
2018-09-18T09:03:19.651Z,18432.00
2018-09-18T09:04:19.642Z,18400.00
2018-09-18T09:05:19.675Z,18304.00
2018-09-18T09:06:19.836Z,18240.00
2018-09-18T09:07:19.711Z,18112.00
2018-09-18T09:08:19.861Z,18080.00
2018-09-18T09:09:19.810Z,17920.00
2018-09-18T09:10:19.812Z,17888.00
2018-09-18T09:11:19.760Z,17728.00
2018-09-18T09:12:19.807Z,17664.00
2018-09-18T09:13:19.790Z,17920.00
2018-09-18T09:14:19.855Z,17952.00
2018-09-18T09:15:19.828Z,17792.00
2018-09-18T09:16:19.840Z,17984.00
2018-09-18T09:17:19.862Z,18912.00
2018-09-18T09:18:20.010Z,25888.00
2018-09-18T09:19:19.892Z,41344.00
2018-09-18T09:20:19.910Z,47040.00
2018-09-18T09:21:20.048Z,43136.00
2018-09-18T09:22:20.018Z,41760.00
2018-09-18T09:23:19.965Z,40416.00
2018-09-18T09:24:19.991Z,38880.00
2018-09-18T09:25:19.998Z,39488.00
2018-09-18T09:26:20.106Z,41536.00
2018-09-18T09:27:20.035Z,42336.00
2018-09-18T09:28:20.069Z,41920.00
2018-09-18T09:29:20.112Z,41120.00
2018-09-18T09:30:20.085Z,40704.00
2018-09-18T09:31:20.135Z,42112.00
2018-09-18T09:32:20.381Z,42496.00
2018-09-18T09:33:20.139Z,42528.00
2018-09-18T09:34:20.155Z,44256.00
2018-09-18T09:35:20.174Z,42688.00
2018-09-18T09:36:20.207Z,42304.00
2018-09-18T09:37:20.249Z,42912.00
2018-09-18T09:38:20.266Z,43584.00
2018-09-18T09:39:20.247Z,43488.00
2018-09-18T09:40:20.269Z,43200.00
2018-09-18T09:41:20.284Z,45600.00
2018-09-18T09:42:20.305Z,44960.00
2018-09-18T09:43:20.320Z,45152.00
2018-09-18T09:44:20.337Z,44928.00
2018-09-18T09:45:20.358Z,44640.00
2018-09-18T09:46:20.435Z,44992.00
2018-09-18T09:47:20.400Z,45536.00
2018-09-18T09:48:20.438Z,46720.00
2018-09-18T09:49:20.436Z,46688.00
2018-09-18T09:50:20.451Z,45440.00
2018-09-18T09:51:20.555Z,44928.00
2018-09-18T09:52:20.485Z,45152.00
2018-09-18T09:53:20.501Z,44576.00
2018-09-18T09:54:20.520Z,43872.00
2018-09-18T09:55:20.544Z,45728.00
2018-09-18T09:56:20.554Z,37760.00
2018-09-18T09:57:20.570Z,17408.00
2018-09-18T09:58:20.618Z,7520.00
2018-09-18T09:59:20.619Z,6236.00
2018-09-18T10:00:20.615Z,5416.00
2018-09-18T10:01:20.628Z,4912.00
2018-09-18T10:02:20.677Z,4516.00
2018-09-18T10:03:20.677Z,4348.00
2018-09-18T10:04:20.678Z,4276.00
2018-09-18T10:05:20.728Z,4244.00
2018-09-18T10:06:20.694Z,4280.00
2018-09-18T10:07:20.704Z,4244.00
2018-09-18T10:08:20.719Z,4232.00
2018-09-18T10:09:20.749Z,4264.00
2018-09-18T10:10:20.822Z,4256.00
2018-09-18T10:11:20.806Z,4288.00
2018-09-18T10:12:20.833Z,4288.00
2018-09-18T10:13:20.789Z,4260.00
2018-09-18T10:14:20.788Z,4268.00
2018-09-18T10:15:20.795Z,4292.00
2018-09-18T10:16:20.858Z,4264.00
2018-09-18T10:17:20.847Z,4272.00
2018-09-18T10:18:20.909Z,4248.00
2018-09-18T10:19:20.863Z,4308.00
2018-09-18T10:20:20.876Z,4284.00
2018-09-18T10:21:20.860Z,4268.00
2018-09-18T10:22:20.864Z,4284.00
2018-09-18T10:23:20.874Z,4336.00
2018-09-18T10:24:20.927Z,4284.00
2018-09-18T10:25:20.917Z,4248.00
2018-09-18T10:26:21.066Z,4208.00
2018-09-18T10:27:20.937Z,4184.00
2018-09-18T10:28:20.923Z,4112.00
2018-09-18T10:29:20.948Z,4080.00
2018-09-18T10:30:20.941Z,4076.00
2018-09-18T10:31:20.981Z,4080.00
2018-09-18T10:32:20.965Z,4040.00
2018-09-18T10:33:21.024Z,4032.00
2018-09-18T10:34:20.990Z,4032.00
2018-09-18T10:35:21.016Z,3992.00
2018-09-18T10:36:21.001Z,3972.00
2018-09-18T10:37:21.010Z,3972.00
2018-09-18T10:38:21.020Z,3944.00
2018-09-18T10:39:21.158Z,3940.00
2018-09-18T10:40:21.039Z,3956.00
2018-09-18T10:41:21.151Z,3952.00
2018-09-18T10:42:21.085Z,3936.00
2018-09-18T10:43:21.063Z,3928.00
2018-09-18T10:44:21.097Z,3940.00
2018-09-18T10:45:21.092Z,3900.00
2018-09-18T10:46:21.087Z,3856.00
2018-09-18T10:47:21.105Z,3788.00
2018-09-18T10:48:21.111Z,3720.00
2018-09-18T10:49:21.145Z,3664.00
2018-09-18T10:50:21.163Z,3652.00
2018-09-18T10:51:21.135Z,3620.00
2018-09-18T10:52:21.264Z,3592.00
2018-09-18T10:53:21.152Z,3584.00
2018-09-18T10:54:21.267Z,3572.00
2018-09-18T10:55:21.189Z,3564.00
2018-09-18T10:56:21.237Z,3560.00
2018-09-18T10:57:21.192Z,3548.00
2018-09-18T10:58:21.270Z,3544.00
2018-09-18T10:59:21.205Z,3532.00
2018-09-18T11:00:21.232Z,3508.00
2018-09-18T11:01:21.254Z,3492.00
2018-09-18T11:02:21.375Z,3532.00
2018-09-18T11:03:21.258Z,3520.00
2018-09-18T11:04:21.292Z,3504.00
2018-09-18T11:05:21.334Z,3512.00
2018-09-18T11:06:21.278Z,3524.00
2018-09-18T11:07:21.309Z,3532.00
2018-09-18T11:08:21.589Z,3524.00
2018-09-18T11:11:24.484Z,3428.00
2018-09-18T11:12:17.538Z,3428.00
2018-09-18T11:14:10.408Z,3376.00
2018-09-18T11:15:07.675Z,3376.00
2018-09-18T11:17:01.327Z,3336.00
2018-09-18T11:18:01.884Z,3344.00
2018-09-18T11:19:54.337Z,3332.00
2018-09-18T11:20:54.878Z,3292.00
2018-09-18T11:21:55.169Z,3256.00
2018-09-18T11:22:54.421Z,3244.00
2018-09-18T11:23:54.296Z,3252.00
2018-09-18T11:24:55.995Z,3196.00
2018-09-18T11:25:54.500Z,3164.00
2018-09-18T11:26:53.919Z,3136.00
2018-09-18T11:27:53.902Z,3112.00
2018-09-18T11:28:53.896Z,3124.00
2018-09-18T11:29:56.792Z,3124.00
2018-09-18T11:30:53.920Z,3128.00
2018-09-18T11:31:53.935Z,3128.00
2018-09-18T11:32:54.084Z,3100.00
2018-09-18T11:33:53.931Z,3064.00
2018-09-18T11:34:53.953Z,3020.00
2018-09-18T11:35:53.952Z,3004.00
2018-09-18T11:36:55.772Z,3000.00
2018-09-18T11:37:53.968Z,3008.00
2018-09-18T11:38:53.977Z,2984.00
2018-09-18T11:39:53.984Z,2996.00
2018-09-18T11:40:54.009Z,3024.00
2018-09-18T11:41:55.775Z,2996.00
2018-09-18T11:43:01.602Z,2964.00
2018-09-18T11:44:47.940Z,2912.00
2018-09-18T11:45:48.030Z,2892.00
2018-09-18T11:47:42.358Z,2896.00
2018-09-18T11:48:41.608Z,2844.00
2018-09-18T11:50:34.872Z,2816.00
2018-09-18T11:51:34.272Z,2816.00
2018-09-18T11:53:27.830Z,2796.00
2018-09-18T11:54:28.182Z,2792.00
2018-09-18T11:56:22.304Z,2820.00
2018-09-18T11:57:22.842Z,2788.00
2018-09-18T11:59:14.114Z,2676.00
2018-09-18T12:00:13.835Z,2680.00
2018-09-18T12:02:07.077Z,2684.00
2018-09-18T12:03:07.609Z,2644.00
2018-09-18T12:05:01.635Z,2652.00
2018-09-18T12:06:01.176Z,2632.00
2018-09-18T12:07:58.318Z,2608.00
2018-09-18T12:08:55.520Z,2592.00
2018-09-18T12:10:47.989Z,2544.00
2018-09-18T12:11:47.884Z,2536.00
2018-09-18T12:12:47.758Z,2532.00
2018-09-18T12:13:49.081Z,2488.00
2018-09-18T12:14:47.894Z,2472.00
2018-09-18T12:15:49.673Z,2460.00
2018-09-18T12:16:47.695Z,2456.00
2018-09-18T12:17:47.726Z,2460.00
2018-09-18T12:18:47.764Z,2448.00
2018-09-18T12:19:49.657Z,2416.00
2018-09-18T12:20:47.977Z,2396.00
2018-09-18T12:21:47.731Z,2384.00
2018-09-18T12:22:47.766Z,2356.00
2018-09-18T12:23:47.757Z,2344.00
2018-09-18T12:24:47.788Z,2340.00
2018-09-18T12:25:47.801Z,2340.00
2018-09-18T12:26:47.783Z,2320.00
2018-09-18T12:27:47.972Z,2304.00
2018-09-18T12:28:49.692Z,2280.00
2018-09-18T12:29:47.893Z,2268.00
2018-09-18T12:30:49.690Z,2256.00
2018-09-18T12:31:47.841Z,2240.00
2018-09-18T12:32:47.821Z,2220.00
2018-09-18T12:33:47.863Z,2200.00
2018-09-18T12:34:49.663Z,2212.00
2018-09-18T12:35:47.946Z,2200.00
2018-09-18T12:36:50.739Z,2176.00
2018-09-18T12:37:47.903Z,2168.00
2018-09-18T12:38:47.874Z,2156.00
2018-09-18T12:39:47.885Z,2152.00
2018-09-18T12:40:47.889Z,2136.00
2018-09-18T12:41:47.928Z,2116.00
2018-09-18T12:42:47.944Z,2112.00
2018-09-18T12:43:47.919Z,2108.00
2018-09-18T12:44:47.932Z,2104.00
2018-09-18T12:45:47.929Z,2088.00
2018-09-18T12:46:47.968Z,2092.00
2018-09-18T12:47:49.679Z,2096.00
2018-09-18T12:48:49.731Z,2096.00
2018-09-18T12:49:48.088Z,2092.00
2018-09-18T12:50:49.749Z,2072.00
2018-09-18T12:51:47.982Z,2068.00
2018-09-18T12:52:49.694Z,2064.00
2018-09-18T12:53:48.099Z,2064.00
2018-09-18T12:54:48.023Z,2068.00
2018-09-18T12:55:48.034Z,2052.00
2018-09-18T12:56:48.090Z,2048.00
2018-09-18T12:57:48.076Z,2048.00
2018-09-18T12:58:48.108Z,2060.00
2018-09-18T12:59:48.083Z,2036.00
2018-09-18T13:00:48.052Z,2016.00
2018-09-18T13:01:48.082Z,2016.00
2018-09-18T13:02:48.072Z,2012.00
2018-09-18T13:03:48.126Z,2000.00
2018-09-18T13:04:48.100Z,1996.00
2018-09-18T13:05:48.127Z,1980.00
2018-09-18T13:06:48.272Z,1988.00
2018-09-18T13:07:48.168Z,1988.00
2018-09-18T13:08:50.965Z,1992.00
2018-09-18T13:11:36.221Z,1952.00
2018-09-18T13:14:03.939Z,1940.00
2018-09-18T13:15:03.834Z,1924.00
2018-09-18T13:16:57.645Z,1912.00
2018-09-18T13:17:57.298Z,1904.00
2018-09-18T13:19:51.326Z,1892.00
2018-09-18T13:20:49.480Z,1896.00
2018-09-18T13:22:43.204Z,1896.00
2018-09-18T13:23:44.054Z,1892.00
2018-09-18T13:25:36.965Z,1880.00
2018-09-18T13:26:36.517Z,1872.00
2018-09-18T13:28:29.526Z,1844.00
2018-09-18T13:29:29.940Z,1836.00
2018-09-18T13:31:22.847Z,1824.00
2018-09-18T13:32:21.893Z,1816.00
2018-09-18T13:33:21.792Z,1808.00
2018-09-18T13:34:22.435Z,1800.00
2018-09-18T13:35:21.904Z,1796.00
2018-09-18T13:36:22.483Z,1780.00
2018-09-18T13:37:22.786Z,1772.00
2018-09-18T13:38:23.268Z,1772.00
2018-09-18T13:39:22.439Z,1760.00
2018-09-18T13:40:21.815Z,1764.00
2018-09-18T13:41:21.797Z,1752.00
2018-09-18T13:42:22.460Z,1744.00
2018-09-18T13:43:22.407Z,1740.00
2018-09-18T13:44:21.916Z,1740.00
2018-09-18T13:45:21.986Z,1732.00
2018-09-18T13:46:22.501Z,1712.00
2018-09-18T13:47:24.408Z,1704.00
2018-09-18T13:48:22.010Z,1700.00
2018-09-18T13:49:22.449Z,1696.00
2018-09-18T13:50:22.870Z,1700.00
2018-09-18T13:51:22.495Z,1700.00
2018-09-18T13:52:22.575Z,1700.00
2018-09-18T13:53:21.921Z,1696.00
2018-09-18T13:54:22.411Z,1680.00
2018-09-18T13:55:21.673Z,1680.00
2018-09-18T13:56:21.667Z,1676.00
2018-09-18T13:57:21.677Z,1668.00
2018-09-18T13:58:21.602Z,1668.00
2018-09-18T13:59:21.603Z,1648.00
2018-09-18T14:00:21.616Z,1640.00
2018-09-18T14:01:21.712Z,1636.00
2018-09-18T14:02:21.697Z,1628.00
2018-09-18T14:03:21.640Z,1600.00
2018-09-18T14:04:21.664Z,1616.00
2018-09-18T14:05:21.652Z,1612.00
2018-09-18T14:06:21.689Z,1600.00
2018-09-18T14:07:21.704Z,1592.00
2018-09-18T14:08:21.698Z,1588.00
2018-09-18T14:09:21.773Z,1580.00
2018-09-18T14:10:21.701Z,1552.00
2018-09-18T14:11:21.729Z,1608.00
2018-09-18T14:12:21.731Z,1604.00
2018-09-18T14:13:21.768Z,1576.00
2018-09-18T14:14:21.799Z,1544.00
2018-09-18T14:15:21.854Z,1552.00
2018-09-18T14:16:21.741Z,1544.00
2018-09-18T14:17:21.750Z,1480.00
2018-09-18T14:18:21.759Z,1500.00
2018-09-18T14:19:21.763Z,1512.00
2018-09-18T14:20:21.884Z,1496.00
2018-09-18T14:21:21.780Z,1488.00
2018-09-18T14:22:21.788Z,1480.00
2018-09-18T14:23:21.794Z,1476.00
2018-09-18T14:24:21.802Z,1476.00
2018-09-18T14:25:21.840Z,1468.00
2018-09-18T14:26:21.828Z,1468.00
2018-09-18T14:27:21.849Z,1460.00
2018-09-18T14:28:21.862Z,1452.00
2018-09-18T14:29:21.845Z,1436.00
2018-09-18T14:30:21.849Z,1432.00
2018-09-18T14:31:21.897Z,1424.00
2018-09-18T14:32:21.999Z,1416.00
2018-09-18T14:33:21.899Z,1412.00
2018-09-18T14:34:21.940Z,1408.00
2018-09-18T14:35:29.920Z,1396.00
2018-09-18T14:37:16.312Z,1376.00
2018-09-18T14:38:16.307Z,1364.00
2018-09-18T14:39:15.293Z,1364.00
2018-09-18T14:40:16.894Z,1352.00
2018-09-18T14:41:15.840Z,1344.00
2018-09-18T14:42:15.314Z,1344.00
2018-09-18T14:43:16.319Z,1308.00
2018-09-18T14:44:15.803Z,1316.00
2018-09-18T14:45:17.007Z,1312.00
2018-09-18T14:46:15.873Z,1308.00
2018-09-18T14:47:15.892Z,1304.00
2018-09-18T14:48:16.435Z,1300.00
2018-09-18T14:49:15.395Z,1296.00
2018-09-18T14:50:16.957Z,1292.00
2018-09-18T14:51:16.345Z,1284.00
2018-09-18T14:52:15.464Z,1280.00
2018-09-18T14:55:00.654Z,1260.00
2018-09-18T14:56:01.539Z,1228.00
2018-09-18T14:57:54.406Z,1256.00
2018-09-18T14:58:54.038Z,1244.00
2018-09-18T15:01:19.529Z,1232.00
2018-09-18T15:03:33.106Z,1200.00
2018-09-18T15:05:59.713Z,1188.00
2018-09-18T15:09:54.148Z,1164.00
2018-09-18T15:10:52.891Z,1152.00
2018-09-18T15:15:18.642Z,1120.00
2018-09-18T15:16:12.677Z,1112.00
2018-09-18T15:18:41.168Z,1100.00
2018-09-18T15:21:04.735Z,1076.00
2018-09-18T15:22:04.309Z,1068.00
2018-09-18T15:24:01.148Z,1048.00
2018-09-18T15:24:59.652Z,1040.00
2018-09-18T15:25:59.659Z,1024.00
2018-09-18T15:26:59.636Z,1012.00
2018-09-18T15:27:59.677Z,1000.00
2018-09-18T15:29:00.607Z,992.00
2018-09-18T15:29:59.682Z,980.00
2018-09-18T15:30:59.695Z,964.00
2018-09-18T15:31:59.676Z,952.00
2018-09-18T15:33:00.170Z,948.00
2018-09-18T15:33:59.725Z,940.00
2018-09-18T15:35:00.178Z,932.00
2018-09-18T15:35:59.159Z,924.00
2018-09-18T15:36:59.651Z,920.00
2018-09-18T15:37:59.140Z,912.00
2018-09-18T15:38:59.206Z,908.00
2018-09-18T15:39:59.701Z,900.00
2018-09-18T15:40:58.695Z,880.00
2018-09-18T15:42:00.845Z,872.00
2018-09-18T15:42:59.682Z,864.00
2018-09-18T15:43:59.698Z,856.00
2018-09-18T15:44:59.290Z,848.00
2018-09-18T16:53:17.875Z,304.00
2018-09-18T16:54:24.490Z,296.00
2018-09-18T16:56:10.675Z,276.00
2018-09-18T16:57:11.167Z,268.00
2018-09-18T16:59:07.043Z,252.00
2018-09-18T17:00:04.736Z,240.00
2018-09-18T17:01:03.691Z,232.00
2018-09-18T17:02:05.097Z,228.00
2018-09-18T17:03:03.003Z,216.00
2018-09-18T17:04:02.692Z,208.00
2018-09-18T17:05:02.673Z,200.00
2018-09-18T17:06:02.679Z,192.00
2018-09-18T17:07:02.678Z,180.00
2018-09-18T17:08:02.684Z,172.00
2018-09-18T17:09:02.718Z,164.00
2018-09-18T17:10:02.699Z,152.00
2018-09-18T17:11:02.697Z,144.00
2018-09-18T17:12:02.719Z,132.00
2018-09-18T17:13:02.709Z,128.00
2018-09-18T17:14:02.719Z,120.00
2018-09-18T17:15:02.863Z,108.00
2018-09-18T17:16:03.089Z,100.00
2018-09-18T17:17:02.763Z,92.00
2018-09-18T17:18:03.116Z,84.00
2018-09-18T17:19:02.863Z,76.00
2018-09-18T17:20:03.059Z,68.00
2018-09-18T17:21:02.800Z,64.00
2018-09-18T17:22:02.903Z,60.00
2018-09-18T17:23:03.791Z,52.00
2018-09-18T17:24:03.001Z,48.00
2018-09-18T17:25:02.973Z,44.00
2018-09-18T17:26:03.748Z,40.00
2018-09-18T17:27:04.030Z,32.00
2018-09-18T17:28:04.713Z,32.00
2018-09-18T17:29:02.968Z,24.00
2018-09-18T17:30:02.864Z,24.00
2018-09-18T17:31:02.832Z,20.00
2018-09-18T17:32:02.816Z,20.00
2018-09-18T17:33:02.884Z,16.00
2018-09-18T17:34:02.828Z,16.00
2018-09-18T17:35:02.833Z,12.00
2018-09-18T17:36:02.839Z,8.00
2018-09-18T17:37:02.866Z,8.00
2018-09-18T17:38:02.860Z,8.00
2018-09-18T17:39:02.851Z,4.00
2018-09-18T17:40:02.862Z,8.00
2018-09-18T17:41:02.860Z,4.00
2018-09-18T17:42:02.870Z,4.00
2018-09-18T17:43:02.875Z,4.00
2018-09-18T17:44:02.923Z,0.00
2018-09-18T17:45:02.909Z,4.00
2018-09-18T17:46:02.913Z,4.00
2018-09-18T17:47:02.912Z,0.00
2018-09-18T17:48:02.910Z,0.00
2018-09-18T17:49:02.931Z,0.00
2018-09-18T17:50:03.061Z,0.00
2018-09-18T17:51:02.938Z,0.00
2018-09-18T17:52:04.890Z,0.00
2018-09-18T17:53:13.987Z,0.00
2018-09-18T17:54:04.477Z,0.00
2018-09-18T17:55:04.584Z,0.00
2018-09-18T17:56:04.473Z,0.00
2018-09-18T17:57:06.885Z,0.00
2018-09-18T17:58:03.407Z,0.00
2018-09-18T17:59:04.076Z,0.00
2018-09-18T18:00:03.966Z,0.00
2018-09-18T18:01:04.471Z,0.00
2018-09-18T18:02:05.048Z,0.00
2018-09-18T18:03:03.483Z,0.00
2018-09-18T18:04:04.007Z,0.00
2018-09-18T18:05:05.094Z,0.00
2018-09-18T18:06:04.100Z,0.00
2018-09-18T18:07:04.523Z,0.00
2018-09-18T18:08:04.054Z,0.00
2018-09-18T18:09:03.499Z,0.00
2018-09-18T18:10:03.471Z,0.00
2018-09-18T18:11:03.457Z,0.00
2018-09-18T18:12:04.606Z,0.00
2018-09-18T18:13:03.517Z,0.00
2018-09-18T18:14:03.389Z,0.00
2018-09-18T18:15:03.518Z,0.00
2018-09-18T18:16:04.067Z,0.00
2018-09-18T18:17:04.572Z,0.00
2018-09-18T18:18:04.026Z,0.00
2018-09-18T18:19:04.076Z,0.00
2018-09-18T18:20:04.094Z,0.00
2018-09-18T18:21:04.076Z,0.00
2018-09-18T18:22:03.530Z,0.00
2018-09-18T18:23:03.910Z,0.00
2018-09-18T18:24:03.092Z,0.00
2018-09-18T18:25:03.080Z,0.00
2018-09-18T18:26:03.098Z,0.00
2018-09-18T18:27:03.099Z,0.00
2018-09-18T18:28:03.095Z,0.00
2018-09-18T18:29:06.472Z,0.00
2018-09-18T18:30:03.109Z,0.00
2018-09-18T18:31:03.132Z,0.00
2018-09-18T18:32:04.709Z,0.00
2018-09-18T18:33:03.141Z,0.00
2018-09-18T18:34:03.137Z,0.00
2018-09-18T18:35:03.132Z,0.00
2018-09-18T18:36:05.685Z,0.00
2018-09-18T18:37:03.541Z,0.00
2018-09-18T18:38:07.437Z,0.00
2018-09-18T18:39:06.182Z,0.00
2018-09-18T18:40:04.119Z,0.00
2018-09-18T18:41:03.242Z,0.00
2018-09-18T18:42:03.188Z,0.00
2018-09-18T18:43:03.163Z,0.00
2018-09-18T18:44:03.214Z,0.00
2018-09-18T18:45:03.218Z,0.00
2018-09-18T18:46:11.120Z,0.00
2018-09-18T18:47:57.262Z,0.00
2018-09-18T18:48:56.759Z,0.00
2018-09-18T18:50:50.313Z,0.00
2018-09-18T18:51:50.265Z,0.00
2018-09-18T18:53:43.741Z,0.00
2018-09-18T18:54:43.875Z,0.00
2018-09-18T18:56:38.291Z,0.00
2018-09-18T18:57:36.999Z,0.00
2018-09-18T18:59:30.661Z,0.00
2018-09-18T19:00:30.552Z,0.00
2018-09-18T19:02:23.540Z,0.00
2018-09-18T19:03:23.394Z,0.00
2018-09-18T19:05:16.329Z,0.00
2018-09-18T19:06:16.575Z,0.00
2018-09-18T19:08:09.460Z,0.00
2018-09-18T19:09:10.500Z,0.00
2018-09-18T19:12:09.669Z,0.00
2018-09-18T19:13:09.619Z,0.00
2018-09-18T19:15:04.132Z,0.00
2018-09-18T19:16:03.036Z,0.00
2018-09-18T19:17:55.303Z,0.00
2018-09-18T19:18:55.174Z,0.00
2018-09-18T19:20:48.162Z,0.00
2018-09-18T19:21:47.994Z,0.00
2018-09-18T19:23:41.691Z,0.00
2018-09-18T19:24:41.554Z,0.00
2018-09-18T19:26:34.802Z,0.00
2018-09-18T19:27:35.557Z,0.00
2018-09-18T19:29:28.799Z,0.00
2018-09-18T19:30:27.986Z,0.00
2018-09-18T19:32:22.325Z,0.00
2018-09-18T19:33:28.642Z,0.00
2018-09-18T19:35:14.760Z,0.00
2018-09-18T19:36:15.160Z,0.00
2018-09-18T19:38:08.223Z,0.00
2018-09-18T19:39:07.815Z,0.00
2018-09-18T19:41:01.725Z,0.00
2018-09-18T19:42:00.706Z,0.00
2018-09-18T19:43:53.070Z,0.00
2018-09-18T19:44:53.599Z,0.00
2018-09-18T19:46:45.970Z,0.00
2018-09-18T19:47:46.495Z,0.00
2018-09-18T19:49:39.603Z,0.00
2018-09-18T19:50:39.299Z,0.00
2018-09-18T19:52:32.590Z,0.00
2018-09-18T19:53:33.254Z,0.00
2018-09-18T19:55:25.126Z,0.00
2018-09-18T19:56:26.172Z,0.00
2018-09-18T19:58:18.555Z,0.00
2018-09-18T19:59:18.525Z,0.00
2018-09-18T20:01:11.385Z,0.00
2018-09-18T20:02:11.954Z,0.00
2018-09-18T20:04:04.341Z,0.00
2018-09-18T20:05:06.158Z,0.00
2018-09-18T20:06:59.663Z,0.00
2018-09-18T20:08:00.613Z,0.00
2018-09-18T20:09:51.062Z,0.00
2018-09-18T20:10:51.190Z,0.00
2018-09-18T20:12:44.833Z,0.00
2018-09-18T20:13:44.618Z,0.00
2018-09-18T20:15:38.421Z,0.00